Moffat, Colorado
Current Conditions -  °F | °C
As of 6:54 AM on Friday 24 Oct 2014 (Local Time) from K04V Reporting Station
Clear Clear  
Wind Chill: 27°   Ceiling: Unl
Heat Index: 36°   Visibility: 10mi
Dew Point: 27°   Wind: 13mph
Humidity: 70%   Direction: 340°NNW
Pressure: 30.42"   Gusts: NA
Location:  38°N, 105.91°W
Report Text: K04V 241254Z AUTO 34011KT 10SM CLR 02/M03 A3042 RMK AO2
Loading
Personal Weather Stations






























Interactive Weather Map
Tropical Storm Tracking
New forecast layout! Learn more

10-Day Weather Forecast

Advertisements
Track Severe Weather on mobile